Riplinger, Wisconsin
Current Conditions -  °F | °C
As of 9:54 PM on Sunday 25 Jan 2015 (Local Time) from KMFI Reporting Station
Clear Clear  
Wind Chill:   Ceiling: Unl
Heat Index: 15°   Visibility: 10mi
Dew Point:   Wind: 6mph
Humidity: 70%   Direction: 170°S
Pressure: 30.01"   Gusts: NA
Location:  44.7153°N, 90.3374°W
Report Text: KMFI 260354Z AUTO 17005KT 10SM CLR M09/M14 A3001 RMK AO2 SLP187 T10941139
Loading
Personal Weather Stations






























Interactive Weather Map New forecast layout! Learn more

10-Day Weather Forecast

Advertisements
Track Severe Weather on mobile